Time;durP1;ratioP1;P1;durP2;ratioP2;P2;SDS_P1;SDS_P2;PMS_P1;PMS_P2;Temp;Humidity;BMP_temperature;BMP_pressure;BME280_temperature;BME280_humidity;BME280_pressure;Samples;Min_cycle;Max_cycle;Signal;HPM_P1;HPM_P2
2023/09/20 00:00:27;;;;;;;6.30;3.50;;;;;;;17.06;68.18;100960.36;107577;1254;109907;-63
2023/09/20 00:03:15;;;;;;;5.30;3.50;;;;;;;17.03;68.25;100962.55;107583;1253;109890;-62
2023/09/20 00:05:44;;;;;;;8.30;3.70;;;;;;;17.00;68.34;100970.88;107479;1253;97804;-63
2023/09/20 00:08:12;;;;;;;6.30;3.50;;;;;;;16.98;68.73;100974.14;107593;1254;97729;-63
2023/09/20 00:10:41;;;;;;;17.10;4.00;;;;;;;16.93;68.48;100978.91;107639;1254;111830;-63
2023/09/20 00:13:10;;;;;;;7.50;3.60;;;;;;;16.90;68.71;100979.88;107543;1254;109012;-63
2023/09/20 00:15:42;;;;;;;15.30;4.40;;;;;;;16.85;68.65;100983.00;107529;1252;108766;-63
2023/09/20 00:18:11;;;;;;;8.80;3.70;;;;;;;16.82;68.74;100988.06;107521;1251;97925;-63
2023/09/20 00:20:39;;;;;;;8.20;4.00;;;;;;;16.80;68.67;100984.44;107551;1254;97827;-63
2023/09/20 00:23:09;;;;;;;13.80;4.30;;;;;;;16.80;68.85;100989.16;107538;1253;111365;-63
2023/09/20 00:25:37;;;;;;;7.20;3.80;;;;;;;16.80;68.78;100984.69;107664;1254;109266;-63
2023/09/20 00:28:07;;;;;;;8.80;4.00;;;;;;;16.78;68.68;100987.22;107531;1255;108282;-63
2023/09/20 00:30:37;;;;;;;8.10;3.80;;;;;;;16.76;69.00;100989.84;107546;1254;97701;-63
2023/09/20 00:33:05;;;;;;;11.10;5.10;;;;;;;16.71;69.11;100986.35;107565;1254;97845;-63
2023/09/20 00:35:40;;;;;;;12.60;3.60;;;;;;;16.64;68.89;100980.27;107589;1254;110625;-62
2023/09/20 00:38:09;;;;;;;6.10;3.40;;;;;;;16.57;69.12;100985.14;107554;1256;110102;-63
2023/09/20 00:40:37;;;;;;;11.30;3.90;;;;;;;16.55;68.97;100988.88;107502;1256;108028;-63
2023/09/20 00:43:08;;;;;;;10.40;3.60;;;;;;;16.54;69.07;100990.08;107533;1254;97958;-64
2023/09/20 00:45:40;;;;;;;12.00;4.40;;;;;;;16.51;69.20;100995.10;107554;1254;97928;-63
2023/09/20 00:48:12;;;;;;;28.20;4.50;;;;;;;16.48;69.11;100999.00;107611;1255;112017;-63
2023/09/20 00:50:43;;;;;;;8.50;3.90;;;;;;;16.44;68.97;101002.25;107614;1251;109564;-63
2023/09/20 00:53:13;;;;;;;11.80;4.10;;;;;;;16.38;68.85;101002.45;107560;1254;108748;-63
2023/09/20 00:55:42;;;;;;;9.70;4.80;;;;;;;16.37;68.92;101001.57;107570;1252;97752;-64
2023/09/20 00:58:15;;;;;;;5.70;4.10;;;;;;;16.37;69.02;101003.20;107643;1254;97700;-64
2023/09/20 01:00:45;;;;;;;13.50;4.00;;;;;;;16.37;69.07;101006.02;107628;1254;111889;-63
2023/09/20 01:03:19;;;;;;;7.70;3.70;;;;;;;16.36;68.94;101016.09;107561;1254;108512;-62
2023/09/20 01:05:49;;;;;;;15.80;4.50;;;;;;;16.37;69.17;101020.92;107611;1253;109034;-62
2023/09/20 01:08:19;;;;;;;14.40;4.30;;;;;;;16.38;69.28;101021.73;107521;1253;98511;-63
2023/09/20 01:10:49;;;;;;;10.60;4.50;;;;;;;16.38;69.28;101021.70;107537;1253;98376;-62
2023/09/20 01:13:18;;;;;;;12.40;4.00;;;;;;;16.38;69.17;101020.95;107643;1254;110952;-63
2023/09/20 01:15:48;;;;;;;9.90;4.30;;;;;;;16.37;69.29;101018.67;107587;1254;110032;-64
2023/09/20 01:18:16;;;;;;;10.80;4.20;;;;;;;16.33;69.47;101023.34;107531;1254;108490;-64
2023/09/20 01:20:45;;;;;;;13.70;4.70;;;;;;;16.30;69.39;101026.92;107508;1255;97944;-63
2023/09/20 01:23:13;;;;;;;17.80;4.10;;;;;;;16.25;69.49;101028.64;107560;1255;97992;-64
2023/09/20 01:25:43;;;;;;;13.00;5.10;;;;;;;16.18;69.63;101033.95;107534;1254;111882;-63
2023/09/20 01:28:13;;;;;;;13.20;4.20;;;;;;;16.11;69.43;101040.70;107645;1253;109398;-64
2023/09/20 01:30:41;;;;;;;13.00;4.40;;;;;;;16.08;69.47;101036.92;107461;1254;108466;-64
2023/09/20 01:33:12;;;;;;;5.30;3.50;;;;;;;16.04;69.61;101040.50;107475;1254;97860;-64
2023/09/20 01:35:45;;;;;;;10.40;4.50;;;;;;;16.01;69.69;101038.48;107587;1254;97732;-63
2023/09/20 01:38:14;;;;;;;8.80;4.50;;;;;;;16.00;69.72;101043.68;107593;1254;112001;-63
2023/09/20 01:40:46;;;;;;;21.80;4.60;;;;;;;15.98;69.97;101044.60;107552;1254;109807;-64
2023/09/20 01:43:14;;;;;;;16.00;4.70;;;;;;;15.96;70.19;101042.81;107577;1254;108526;-64
2023/09/20 01:45:44;;;;;;;16.80;4.70;;;;;;;15.93;70.04;101042.58;107548;1254;97918;-63
2023/09/20 01:48:13;;;;;;;24.70;5.30;;;;;;;15.91;70.35;101042.81;107490;1252;97785;-63
2023/09/20 01:50:42;;;;;;;11.20;4.50;;;;;;;15.89;70.40;101048.77;107557;1254;110314;-63
2023/09/20 01:53:11;;;;;;;9.60;4.20;;;;;;;15.89;70.40;101049.25;107601;1254;108895;-63
2023/09/20 01:55:42;;;;;;;13.10;3.60;;;;;;;15.88;70.39;101058.23;107566;1254;107689;-63
2023/09/20 01:58:14;;;;;;;8.30;3.70;;;;;;;15.86;70.51;101063.83;107525;1254;97714;-64
2023/09/20 02:00:43;;;;;;;8.60;4.20;;;;;;;15.84;70.87;101066.17;107562;1254;97849;-63
2023/09/20 02:03:16;;;;;;;10.40;3.80;;;;;;;15.82;70.84;101059.91;107525;1254;111029;-63
2023/09/20 02:05:47;;;;;;;9.00;4.20;;;;;;;15.81;71.01;101065.23;107448;1256;108932;-63
2023/09/20 02:08:17;;;;;;;8.80;4.20;;;;;;;15.78;71.41;101068.94;107509;1254;107284;-63
2023/09/20 02:10:47;;;;;;;6.60;3.40;;;;;;;15.74;71.44;101071.50;107517;1254;97826;-63
2023/09/20 02:13:16;;;;;;;11.20;4.10;;;;;;;15.72;72.01;101070.82;107597;1254;98370;-64
2023/09/20 02:15:46;;;;;;;6.60;3.60;;;;;;;15.72;72.09;101077.70;107538;1254;111229;-64
2023/09/20 02:18:16;;;;;;;12.50;5.30;;;;;;;15.73;72.10;101084.90;107540;1254;108705;-63
2023/09/20 02:20:45;;;;;;;11.00;4.10;;;;;;;15.75;72.96;101087.02;107572;1254;107202;-62
2023/09/20 02:23:14;;;;;;;8.50;3.90;;;;;;;15.73;73.15;101092.86;107580;1253;97742;-63
2023/09/20 02:25:44;;;;;;;15.10;4.20;;;;;;;15.70;72.73;101095.61;107590;1254;97928;-63
2023/09/20 02:28:14;;;;;;;11.80;4.20;;;;;;;15.70;72.56;101096.77;107521;1254;112157;-65
2023/09/20 02:30:43;;;;;;;11.80;4.40;;;;;;;15.71;72.62;101089.94;107598;1254;109289;-63
2023/09/20 02:33:14;;;;;;;7.10;3.90;;;;;;;15.74;72.71;101095.30;107570;1254;108257;-63
2023/09/20 02:35:45;;;;;;;9.00;4.70;;;;;;;15.78;72.69;101096.14;107579;1254;97829;-63
2023/09/20 02:38:14;;;;;;;11.10;4.30;;;;;;;15.82;72.63;101099.29;107598;1254;97853;-63
2023/09/20 02:40:46;;;;;;;8.70;4.20;;;;;;;15.87;72.46;101102.25;107587;1254;112002;-63
2023/09/20 02:43:16;;;;;;;7.80;4.50;;;;;;;15.92;72.44;101102.80;107542;1254;110268;-64
2023/09/20 02:45:45;;;;;;;15.70;4.60;;;;;;;15.97;72.40;101099.23;107633;1254;106914;-62
2023/09/20 02:48:14;;;;;;;10.50;4.30;;;;;;;16.01;72.34;101097.01;107609;1254;97905;-62
2023/09/20 02:50:44;;;;;;;9.80;3.80;;;;;;;16.02;72.25;101095.77;107577;1254;98386;-64
2023/09/20 02:53:14;;;;;;;11.70;5.40;;;;;;;16.02;72.24;101095.41;107613;1256;112068;-64
2023/09/20 02:55:44;;;;;;;16.50;5.00;;;;;;;16.01;72.20;101103.80;107413;1253;109889;-63
2023/09/20 02:58:13;;;;;;;9.20;4.90;;;;;;;15.98;71.99;101104.66;107587;1255;108375;-63
2023/09/20 03:00:46;;;;;;;9.60;4.80;;;;;;;16.00;72.19;101107.38;107526;1254;97832;-63
2023/09/20 03:03:18;;;;;;;9.30;4.30;;;;;;;16.02;72.25;101113.32;107598;1254;99521;-64
2023/09/20 03:05:46;;;;;;;12.70;4.90;;;;;;;16.03;72.41;101116.25;107534;1255;110897;-63
2023/09/20 03:08:14;;;;;;;12.40;4.70;;;;;;;16.03;72.41;101112.80;107522;1257;109662;-63
2023/09/20 03:10:43;;;;;;;15.00;5.30;;;;;;;16.03;72.28;101112.14;107592;1256;108740;-64
2023/09/20 03:13:19;;;;;;;7.20;4.20;;;;;;;16.05;72.39;101114.31;107627;1255;97822;-64
2023/09/20 03:15:54;;;;;;;17.70;5.30;;;;;;;16.06;72.27;101110.70;107572;1252;97880;-64
2023/09/20 03:18:25;;;;;;;11.00;4.20;;;;;;;16.06;72.51;101104.95;107533;1254;112131;-63
2023/09/20 03:21:10;;;;;;;10.80;3.80;;;;;;;16.04;72.58;101108.61;107603;1254;109545;-64
2023/09/20 03:23:39;;;;;;;11.80;4.60;;;;;;;16.04;72.63;101118.04;107602;1254;108582;-64
2023/09/20 03:26:09;;;;;;;8.50;4.30;;;;;;;16.04;72.73;101122.15;107579;1254;97829;-63
2023/09/20 03:28:40;;;;;;;15.30;4.50;;;;;;;16.07;72.65;101121.41;107548;1254;97918;-63
2023/09/20 03:31:11;;;;;;;16.30;4.70;;;;;;;16.11;72.64;101133.11;107609;1251;110554;-63
2023/09/20 03:33:42;;;;;;;11.40;6.10;;;;;;;16.16;72.61;101135.19;107600;1254;110080;-63
2023/09/20 03:36:17;;;;;;;;;;;;;;;16.20;72.62;101132.05;107529;1256;107788;-63
2023/09/20 03:38:48;;;;;;;15.50;7.90;;;;;;;16.24;72.29;101128.46;107564;1254;97905;-64
2023/09/20 03:41:17;;;;;;;21.50;7.40;;;;;;;16.30;72.29;101121.90;107594;1257;97945;-64
2023/09/20 03:43:45;;;;;;;16.70;8.00;;;;;;;16.36;72.09;101123.06;107620;1254;110595;-64
2023/09/20 03:46:14;;;;;;;12.10;5.80;;;;;;;16.43;72.06;101125.27;107598;1255;108624;-63
2023/09/20 03:48:44;;;;;;;13.30;7.80;;;;;;;16.47;72.05;101131.20;107636;1255;107776;-64
2023/09/20 03:51:16;;;;;;;15.10;6.00;;;;;;;16.50;71.89;101134.60;107503;1254;97935;-64
2023/09/20 03:53:45;;;;;;;20.80;5.90;;;;;;;16.55;71.91;101143.61;107519;1254;97928;-65
2023/09/20 03:56:17;;;;;;;12.70;6.10;;;;;;;16.60;71.75;101143.66;107638;1256;111678;-64
2023/09/20 03:58:46;;;;;;;17.00;6.90;;;;;;;16.66;71.83;101144.66;107561;1255;109679;-64
2023/09/20 04:01:15;;;;;;;13.80;6.10;;;;;;;16.71;72.01;101147.20;107554;1255;106379;-64
2023/09/20 04:03:45;;;;;;;10.20;6.70;;;;;;;16.77;72.02;101149.29;107612;1256;97919;-64
2023/09/20 04:06:14;;;;;;;13.20;7.00;;;;;;;16.82;71.91;101150.13;107478;1254;97690;-65
2023/09/20 04:08:42;;;;;;;12.40;7.00;;;;;;;16.88;71.87;101152.21;107539;1254;111432;-64
2023/09/20 04:11:12;;;;;;;13.50;7.50;;;;;;;16.93;72.25;101153.23;107509;1256;109251;-64
2023/09/20 04:13:41;;;;;;;13.50;8.10;;;;;;;16.94;72.69;101159.09;107500;1255;107423;-64
2023/09/20 04:16:09;;;;;;;20.10;7.90;;;;;;;16.92;73.58;101157.07;107525;1254;97905;-64
2023/09/20 04:18:38;;;;;;;21.20;7.20;;;;;;;16.85;74.54;101158.66;107634;1256;97825;-64
2023/09/20 04:21:06;;;;;;;13.70;7.00;;;;;;;16.83;74.97;101161.17;107506;1253;111386;-63
2023/09/20 04:23:35;;;;;;;12.80;7.80;;;;;;;16.81;75.55;101163.71;107564;1255;109846;-64
2023/09/20 04:26:03;;;;;;;16.90;7.40;;;;;;;16.82;75.95;101163.79;107530;1256;107428;-64
2023/09/20 04:28:32;;;;;;;16.10;7.00;;;;;;;16.87;75.99;101172.29;107488;1256;97965;-63
2023/09/20 04:31:02;;;;;;;21.10;7.50;;;;;;;16.90;75.98;101171.04;107526;1256;97702;-64
2023/09/20 04:33:32;;;;;;;16.70;7.20;;;;;;;16.96;75.38;101171.55;107592;1255;111984;-64
2023/09/20 04:36:04;;;;;;;15.10;7.70;;;;;;;17.03;75.55;101172.40;107521;1256;109398;-63
2023/09/20 04:38:32;;;;;;;12.80;7.00;;;;;;;17.10;75.59;101178.86;107578;1255;107588;-63
2023/09/20 04:41:01;;;;;;;20.70;8.00;;;;;;;17.16;75.52;101182.56;107475;1257;99193;-63
2023/09/20 04:43:30;;;;;;;25.70;10.90;;;;;;;17.20;75.76;101186.41;107503;1253;98417;-62
2023/09/20 04:46:02;;;;;;;26.30;10.20;;;;;;;17.25;75.56;101187.02;107547;1257;110552;-62
2023/09/20 04:48:33;;;;;;;15.80;7.20;;;;;;;17.31;75.48;101185.86;107573;1255;110006;-63
2023/09/20 04:51:03;;;;;;;19.10;7.60;;;;;;;17.37;75.13;101182.21;107515;1257;107636;-63
2023/09/20 04:53:35;;;;;;;15.80;6.40;;;;;;;17.44;75.10;101187.31;107567;1254;97826;-64
2023/09/20 04:56:05;;;;;;;14.50;6.60;;;;;;;17.49;75.13;101186.19;107579;1255;97895;-63
2023/09/20 04:58:33;;;;;;;15.40;6.40;;;;;;;17.52;75.03;101186.52;107582;1256;111384;-62
2023/09/20 05:01:02;;;;;;;17.00;8.30;;;;;;;17.55;75.24;101187.52;107551;1255;108959;-62
2023/09/20 05:03:31;;;;;;;13.80;7.40;;;;;;;17.53;75.92;101194.42;107528;1253;107880;-63
2023/09/20 05:06:00;;;;;;;15.90;7.00;;;;;;;17.50;75.98;101198.02;107490;1257;97951;-64
2023/09/20 05:08:28;;;;;;;16.40;7.20;;;;;;;17.47;76.46;101200.17;107544;1257;97815;-63
2023/09/20 05:10:58;;;;;;;17.10;7.60;;;;;;;17.48;76.61;101200.77;107437;1251;110980;-63
2023/09/20 05:13:26;;;;;;;19.60;6.90;;;;;;;17.49;77.13;101204.27;107631;1255;109342;-65
2023/09/20 05:15:54;;;;;;;12.50;7.00;;;;;;;17.49;77.26;101210.50;107525;1255;108291;-62
2023/09/20 05:18:23;;;;;;;26.70;8.80;;;;;;;17.49;77.45;101214.75;107573;1253;97848;-63
2023/09/20 05:20:52;;;;;;;11.80;6.70;;;;;;;17.49;78.06;101216.45;107578;1254;97711;-64
2023/09/20 05:23:21;;;;;;;12.00;7.30;;;;;;;17.52;78.14;101219.95;107609;1254;111816;-63
2023/09/20 05:25:51;;;;;;;14.30;7.30;;;;;;;17.55;78.40;101221.10;107552;1254;109887;-66
2023/09/20 05:28:20;;;;;;;14.20;7.20;;;;;;;17.57;78.25;101219.39;107502;1254;108522;-63
2023/09/20 05:30:49;;;;;;;21.40;7.30;;;;;;;17.61;78.38;101220.67;107557;1253;97839;-63
2023/09/20 05:33:18;;;;;;;19.60;7.40;;;;;;;17.64;78.51;101229.42;107657;1254;97727;-64
2023/09/20 05:35:47;;;;;;;17.60;6.80;;;;;;;17.67;78.31;101230.02;107549;1257;111239;-64
2023/09/20 05:38:17;;;;;;;14.20;6.50;;;;;;;17.70;78.35;101230.64;107486;1254;110186;-63
2023/09/20 05:40:46;;;;;;;18.60;7.80;;;;;;;17.72;78.39;101236.79;107551;1256;108370;-64
2023/09/20 05:43:18;;;;;;;20.50;7.10;;;;;;;17.73;78.45;101233.98;107605;1254;97853;-64
2023/09/20 05:45:47;;;;;;;18.70;7.40;;;;;;;17.77;78.16;101235.33;107522;1257;97886;-63
2023/09/20 05:48:16;;;;;;;15.10;6.90;;;;;;;17.82;78.44;101238.75;107512;1254;110709;-64
2023/09/20 05:50:47;;;;;;;14.60;6.80;;;;;;;17.83;78.25;101244.35;107551;1257;109947;-63
2023/09/20 05:53:16;;;;;;;18.70;7.10;;;;;;;17.86;78.26;101250.31;107598;1253;108622;-64
2023/09/20 05:55:44;;;;;;;22.50;8.20;;;;;;;17.84;78.30;101252.96;107614;1254;97895;-64
2023/09/20 05:58:13;;;;;;;15.40;7.10;;;;;;;17.88;78.14;101248.27;107654;1256;97749;-64
2023/09/20 06:00:41;;;;;;;16.40;6.30;;;;;;;17.89;78.18;101247.98;107598;1254;112038;-64
2023/09/20 06:03:11;;;;;;;18.00;7.40;;;;;;;17.93;78.15;101252.03;107560;1254;108777;-64
2023/09/20 06:05:41;;;;;;;11.30;6.80;;;;;;;17.99;78.03;101247.98;107520;1256;107974;-64
2023/09/20 06:08:11;;;;;;;13.60;6.90;;;;;;;18.07;77.66;101249.44;107500;1254;97847;-63
2023/09/20 06:10:40;;;;;;;17.00;7.00;;;;;;;18.19;77.65;101251.87;107483;1254;98635;-63
2023/09/20 06:13:09;;;;;;;18.70;7.30;;;;;;;18.29;77.34;101253.25;107597;1253;111797;-64
2023/09/20 06:15:38;;;;;;;25.00;7.50;;;;;;;18.40;77.00;101254.73;107576;1254;109576;-64
2023/09/20 06:18:09;;;;;;;22.40;7.50;;;;;;;18.51;76.70;101258.35;107510;1254;108532;-63
2023/09/20 06:20:45;;;;;;;10.80;5.80;;;;;;;18.64;76.43;101262.39;107522;1254;97823;-64
2023/09/20 06:23:14;;;;;;;12.00;5.40;;;;;;;18.79;76.18;101267.76;107515;1254;97750;-63
2023/09/20 06:25:46;;;;;;;6.10;4.70;;;;;;;18.90;75.49;101265.14;107496;1255;111453;-63
2023/09/20 06:28:15;;;;;;;11.70;4.70;;;;;;;19.01;75.23;101267.31;107556;1255;109858;-64
2023/09/20 06:30:44;;;;;;;12.70;5.40;;;;;;;19.07;74.84;101273.55;107549;1254;108028;-63
2023/09/20 06:33:13;;;;;;;12.50;6.30;;;;;;;19.11;74.63;101273.16;107567;1254;97876;-63
2023/09/20 06:35:45;;;;;;;9.60;5.40;;;;;;;19.21;74.71;101277.42;107532;1254;98314;-63
2023/09/20 06:38:15;;;;;;;10.70;4.70;;;;;;;19.23;74.16;101281.29;107556;1254;111872;-63
2023/09/20 06:40:53;;;;;;;8.10;4.00;;;;;;;19.23;73.97;101284.02;107607;1253;110350;-63
2023/09/20 06:43:21;;;;;;;14.60;3.90;;;;;;;19.33;73.89;101284.55;107571;1254;107350;-63
2023/09/20 06:45:51;;;;;;;12.90;4.60;;;;;;;19.47;73.71;101287.66;107521;1254;97858;-63
2023/09/20 06:48:24;;;;;;;11.70;4.40;;;;;;;19.57;73.20;101286.29;107619;1253;97712;-63
2023/09/20 06:50:57;;;;;;;13.50;4.80;;;;;;;19.71;72.89;101285.21;107623;1252;112171;-63
2023/09/20 06:53:26;;;;;;;11.40;4.20;;;;;;;19.81;72.43;101289.92;107570;1251;110231;-63
2023/09/20 06:55:55;;;;;;;8.50;3.70;;;;;;;19.90;72.04;101298.04;107497;1257;108973;-65
2023/09/20 06:58:24;;;;;;;16.70;5.90;;;;;;;20.00;72.04;101306.48;107539;1251;97886;-63
2023/09/20 07:00:53;;;;;;;5.30;3.60;;;;;;;20.06;71.29;101312.52;107509;1254;98109;-64
2023/09/20 07:03:22;;;;;;;6.00;3.70;;;;;;;20.08;71.01;101314.33;107545;1251;111980;-63
2023/09/20 07:05:51;;;;;;;7.70;3.80;;;;;;;20.17;71.22;101317.33;107626;1251;109044;-63
2023/09/20 07:08:21;;;;;;;9.40;3.10;;;;;;;20.33;71.08;101320.89;107587;1251;108508;-63
2023/09/20 07:10:51;;;;;;;7.50;3.60;;;;;;;20.44;70.38;101327.98;107531;1253;97928;-63
2023/09/20 07:13:19;;;;;;;9.40;3.50;;;;;;;20.49;70.24;101333.31;107600;1254;97717;-63
2023/09/20 07:15:51;;;;;;;7.50;3.40;;;;;;;20.58;69.89;101334.02;107581;1255;112314;-63
2023/09/20 07:18:20;;;;;;;7.60;2.90;;;;;;;20.71;69.35;101332.02;107576;1251;109258;-62
2023/09/20 07:20:54;;;;;;;4.90;2.40;;;;;;;20.80;68.66;101333.21;107598;1251;106753;-64
2023/09/20 07:23:23;;;;;;;6.70;2.90;;;;;;;20.86;68.47;101335.19;107645;1254;97933;-63
2023/09/20 07:25:52;;;;;;;9.90;2.90;;;;;;;20.88;68.24;101339.13;107523;1251;98233;-62
2023/09/20 07:28:22;;;;;;;6.50;1.90;;;;;;;20.96;68.00;101340.23;107550;1253;112161;-64
2023/09/20 07:30:51;;;;;;;4.60;2.20;;;;;;;21.06;67.68;101338.08;107449;1256;109746;-65
2023/09/20 07:33:23;;;;;;;3.60;2.50;;;;;;;21.15;67.41;101342.21;107523;1256;108272;-64
2023/09/20 07:36:00;;;;;;;4.10;2.50;;;;;;;21.25;66.73;101342.63;107516;1254;97794;-64
2023/09/20 07:38:32;;;;;;;3.20;2.10;;;;;;;21.33;66.71;101344.39;107643;1254;98369;-63
2023/09/20 07:41:17;;;;;;;5.50;2.40;;;;;;;21.46;66.44;101339.64;107576;1253;111230;-63
2023/09/20 07:43:47;;;;;;;5.00;2.40;;;;;;;21.63;66.09;101341.95;107503;1256;109870;-63
2023/09/20 07:46:20;;;;;;;14.30;2.90;;;;;;;21.73;65.03;101349.38;107616;1254;108520;-63
2023/09/20 07:48:50;;;;;;;4.20;2.90;;;;;;;21.79;64.61;101350.45;107566;1254;97805;-63
2023/09/20 07:51:20;;;;;;;4.70;2.50;;;;;;;21.86;64.25;101347.98;107569;1254;97826;-64
2023/09/20 07:53:53;;;;;;;3.30;2.90;;;;;;;22.03;64.27;101351.20;107598;1254;110973;-64
2023/09/20 07:56:23;;;;;;;9.00;3.50;;;;;;;21.98;63.40;101351.16;107495;1254;109241;-64
2023/09/20 07:58:53;;;;;;;5.10;3.10;;;;;;;21.98;63.53;101350.27;107516;1254;107825;-64
2023/09/20 08:01:24;;;;;;;6.70;3.20;;;;;;;22.11;63.78;101351.17;107447;1254;97944;-64
2023/09/20 08:03:58;;;;;;;5.20;3.30;;;;;;;22.29;63.34;101350.63;107620;1253;98375;-65
2023/09/20 08:06:36;;;;;;;5.20;3.00;;;;;;;22.40;62.62;101353.84;107548;1253;110911;-64
2023/09/20 08:09:05;;;;;;;8.90;3.70;;;;;;;22.36;62.11;101353.98;107614;1254;109371;-64
2023/09/20 08:11:34;;;;;;;4.10;3.10;;;;;;;22.20;62.26;101356.73;107563;1252;108561;-64
2023/09/20 08:14:03;;;;;;;8.80;3.30;;;;;;;22.14;62.56;101357.48;107560;1256;97935;-63
2023/09/20 08:16:33;;;;;;;6.40;3.80;;;;;;;22.11;62.74;101356.65;107618;1256;98366;-64
2023/09/20 08:19:21;;;;;;;5.70;3.60;;;;;;;22.08;63.04;101354.68;107584;1254;110817;-64
2023/09/20 08:21:51;;;;;;;5.70;3.90;;;;;;;22.14;62.94;101356.63;107479;1254;109568;-64
2023/09/20 09:00:46;;;;;;;5.70;3.60;;;;;;;21.68;64.70;101361.69;107522;1254;112404;-64
2023/09/20 09:03:15;;;;;;;5.60;3.40;;;;;;;21.62;64.51;101360.86;107543;1251;109990;-64
2023/09/20 09:05:46;;;;;;;9.10;3.60;;;;;;;21.61;64.51;101359.23;107563;1253;108500;-64
2023/09/20 09:08:14;;;;;;;4.90;3.50;;;;;;;21.62;64.85;101358.66;107492;1252;97845;-63
2023/09/20 09:10:43;;;;;;;6.30;3.70;;;;;;;21.60;64.69;101361.64;107675;1253;98338;-66
2023/09/20 09:13:11;;;;;;;9.60;4.60;;;;;;;21.59;64.66;101360.45;107509;1252;112431;-63
2023/09/20 09:15:40;;;;;;;9.70;5.30;;;;;;;21.66;64.72;101364.52;107592;1251;108803;-66
2023/09/20 09:18:18;;;;;;;8.70;4.60;;;;;;;21.58;64.80;101359.48;107462;1251;108723;-64
2023/09/20 09:20:51;;;;;;;17.00;5.20;;;;;;;21.51;64.91;101363.58;107476;1251;98473;-65
2023/09/20 09:23:35;;;;;;;10.20;4.30;;;;;;;21.56;65.14;101360.61;107497;1253;97923;-65
2023/09/20 09:26:04;;;;;;;4.70;3.60;;;;;;;21.58;65.02;101364.44;107464;1252;110330;-64
2023/09/20 09:28:32;;;;;;;6.40;3.30;;;;;;;21.62;65.05;101360.73;107494;1251;109554;-65
2023/09/20 09:31:01;;;;;;;6.10;4.30;;;;;;;21.65;65.09;101362.66;107526;1251;108276;-65
2023/09/20 09:33:29;;;;;;;6.00;3.70;;;;;;;21.69;65.09;101365.27;107490;1251;98562;-65
2023/09/20 09:35:58;;;;;;;11.20;4.10;;;;;;;21.79;65.00;101367.39;107532;1251;97717;-66
2023/09/20 09:38:27;;;;;;;7.60;3.70;;;;;;;21.77;65.05;101369.76;107546;1254;111658;-65
2023/09/20 09:40:56;;;;;;;5.80;3.60;;;;;;;21.67;65.40;101370.55;107559;1251;108737;-64
2023/09/20 09:43:27;;;;;;;10.60;3.80;;;;;;;21.64;65.37;101369.00;107491;1251;108277;-65
2023/09/20 09:46:08;;;;;;;5.90;3.40;;;;;;;21.73;65.40;101367.30;107559;1251;97854;-65
2023/09/20 09:48:38;;;;;;;4.90;3.70;;;;;;;21.89;65.29;101372.70;107581;1255;97914;-65
2023/09/20 09:51:08;;;;;;;10.70;3.70;;;;;;;21.90;64.91;101372.59;107513;1256;110798;-63
2023/09/20 09:53:39;;;;;;;5.50;4.50;;;;;;;21.90;64.94;101374.27;107552;1256;109724;-65
2023/09/20 09:56:09;;;;;;;12.40;9.00;;;;;;;21.88;64.77;101376.87;107550;1252;107822;-64
2023/09/20 09:58:37;;;;;;;7.40;4.20;;;;;;;21.88;64.83;101373.40;107557;1254;97713;-63
2023/09/20 10:01:10;;;;;;;11.00;3.80;;;;;;;21.99;64.86;101376.27;107506;1253;97688;-64
2023/09/20 10:03:42;;;;;;;5.90;3.70;;;;;;;22.03;64.75;101373.25;107544;1254;112168;-64
2023/09/20 10:06:28;;;;;;;11.00;4.30;;;;;;;21.91;64.60;101375.07;107515;1251;109446;-64
2023/09/20 10:09:00;;;;;;;3.80;3.40;;;;;;;21.73;64.85;101372.77;107055;1256;452609;-64
2023/09/20 10:11:28;;;;;;;13.30;4.30;;;;;;;21.71;65.05;101371.73;107532;1252;97851;-64
2023/09/20 10:14:00;;;;;;;5.40;4.50;;;;;;;21.73;64.99;101372.52;107592;1254;97707;-64
2023/09/20 10:16:29;;;;;;;6.10;4.40;;;;;;;21.77;65.01;101374.52;107507;1254;110642;-64
2023/09/20 10:18:58;;;;;;;9.10;4.50;;;;;;;21.67;65.17;101373.00;107504;1254;109182;-62
2023/09/20 10:21:30;;;;;;;10.00;4.10;;;;;;;21.72;65.35;101373.30;107457;1253;107947;-66
2023/09/20 10:24:07;;;;;;;11.40;3.90;;;;;;;21.80;65.41;101375.18;107556;1254;97842;-64
2023/09/20 10:26:39;;;;;;;8.00;4.20;;;;;;;21.83;65.44;101372.10;107563;1256;97743;-67
2023/09/20 10:29:26;;;;;;;5.50;4.00;;;;;;;21.86;65.43;101372.63;107582;1253;110516;-64
2023/09/20 10:32:06;;;;;;;6.10;4.10;;;;;;;21.74;65.46;101372.05;107567;1254;109967;-64
2023/09/20 10:34:37;;;;;;;5.10;3.80;;;;;;;21.65;65.86;101369.70;107524;1256;106833;-65
2023/09/20 10:37:08;;;;;;;6.80;4.00;;;;;;;21.73;65.94;101372.25;107436;1254;97841;-64
2023/09/20 10:39:39;;;;;;;5.30;3.60;;;;;;;21.89;65.81;101368.66;107417;1254;97736;-64
2023/09/20 10:42:12;;;;;;;5.90;3.50;;;;;;;22.19;65.58;101368.14;107500;1254;112213;-63
2023/09/20 10:44:43;;;;;;;5.30;3.70;;;;;;;22.51;64.82;101371.14;107555;1254;108563;-64
2023/09/20 10:47:16;;;;;;;9.20;3.70;;;;;;;22.79;63.82;101372.90;107511;1254;108607;-64
2023/09/20 10:49:49;;;;;;;6.00;4.10;;;;;;;23.03;63.06;101370.98;107371;1257;97839;-64
2023/09/20 10:52:33;;;;;;;8.30;4.10;;;;;;;23.26;62.36;101368.52;107491;1253;97701;-65
2023/09/20 10:55:22;;;;;;;5.60;3.60;;;;;;;23.73;61.81;101369.60;107577;1254;111900;-64
2023/09/20 10:57:53;;;;;;;6.50;3.70;;;;;;;24.41;60.24;101366.14;107575;1254;109468;-63
2023/09/20 11:00:31;;;;;;;9.50;4.00;;;;;;;24.61;56.60;101375.63;107628;1253;108120;-65
2023/09/20 11:03:06;;;;;;;8.00;3.70;;;;;;;24.56;57.32;101372.21;107639;1256;97857;-65
2023/09/20 11:05:36;;;;;;;5.50;3.40;;;;;;;24.61;56.59;101368.01;107603;1253;98422;-65
2023/09/20 11:08:08;;;;;;;5.40;3.60;;;;;;;24.68;56.77;101369.58;107642;1254;111240;-64
2023/09/20 11:10:40;;;;;;;4.20;3.70;;;;;;;24.88;56.46;101367.70;107635;1254;109312;-63
2023/09/20 11:13:12;;;;;;;8.20;3.80;;;;;;;24.94;55.95;101371.06;107677;1253;107096;-65
2023/09/20 11:15:43;;;;;;;8.60;4.10;;;;;;;24.81;55.45;101370.48;107642;1254;97829;-65
2023/09/20 11:18:17;;;;;;;4.30;3.80;;;;;;;24.57;55.70;101367.89;107596;1253;97730;-65
2023/09/20 11:20:49;;;;;;;4.80;3.60;;;;;;;24.46;56.02;101365.09;107616;1254;111362;-64
2023/09/20 11:23:18;;;;;;;7.10;5.00;;;;;;;24.44;56.60;101367.08;107680;1256;108665;-64
2023/09/20 11:25:48;;;;;;;7.60;4.60;;;;;;;24.57;56.81;101360.86;107631;1253;107268;-65
2023/09/20 11:28:17;;;;;;;5.00;3.50;;;;;;;24.54;56.15;101360.96;107624;1254;97889;-64
2023/09/20 11:30:51;;;;;;;4.80;4.00;;;;;;;24.38;55.99;101356.08;107628;1254;97838;-64
2023/09/20 11:33:28;;;;;;;6.10;3.80;;;;;;;24.24;56.44;101355.70;107642;1253;110688;-64
2023/09/20 11:35:57;;;;;;;6.10;3.70;;;;;;;24.28;56.62;101357.88;107664;1251;108411;-64
2023/09/20 11:38:26;;;;;;;13.80;4.10;;;;;;;24.24;56.56;101354.95;107542;1254;109997;-64
2023/09/20 11:40:55;;;;;;;6.50;4.50;;;;;;;24.13;56.69;101355.39;107571;1252;97720;-64
2023/09/20 11:43:27;;;;;;;9.30;4.60;;;;;;;23.90;56.48;101354.08;107564;1254;97744;-64
2023/09/20 11:45:56;;;;;;;6.90;4.80;;;;;;;23.75;56.89;101353.29;107518;1254;112218;-64
2023/09/20 11:48:29;;;;;;;;;;;;;;;23.65;57.18;101358.21;107626;1254;109548;-65
2023/09/20 11:50:57;;;;;;;12.00;4.70;;;;;;;23.47;57.54;101360.23;107646;1252;107202;-63
2023/09/20 11:53:29;;;;;;;7.70;4.60;;;;;;;23.35;57.74;101357.41;107645;1253;97932;-64
2023/09/20 11:56:00;;;;;;;6.60;4.40;;;;;;;23.24;58.02;101355.60;107641;1251;97844;-65
2023/09/20 11:58:36;;;;;;;5.70;4.50;;;;;;;23.21;58.28;101357.49;107655;1251;111267;-65
2023/09/20 12:01:08;;;;;;;6.60;4.10;;;;;;;23.11;58.29;101356.20;107565;1253;110257;-65